Terminal Aerodrome Forecast
Issued by NWS

Home | Current Version | Previous Version | Text Only | Print | Product List | Glossary On
Versions: 1 2 3 4 5 6 7 8 9 10 11 12 13 14 15 16 17 18 19 20 21 22 23
458
FTUS43 KILX 300538
TAFCMI
TAF
KCMI 300538Z 3006/0106 08015KT 6SM SHRA VCTS BKN007CB BKN110
     FM300900 09010KT 3SM SHRA VCTS OVC008CB
     FM301200 13010KT 3SM SHRA VCTS OVC008CB
     FM301600 15010KT 1 1/2SM SHRA VCTS OVC008CB
     FM302200 16018G28KT P6SM VCTS SCT015 BKN020CB
     FM010000 17018G28KT 5SM SHRA OVC025
     FM010400 20014G26KT P6SM SHRA BKN045=

USA.gov is the U.S. government's official web portal to all federal, state and local government web resources and services.